Time;durP1;ratioP1;P1;durP2;ratioP2;P2;SDS_P1;SDS_P2;PMS_P1;PMS_P2;Temp;Humidity;BMP_temperature;BMP_pressure;BME280_temperature;BME280_humidity;BME280_pressure;Samples;Min_cycle;Max_cycle;Signal;HPM_P1;HPM_P2
2022/05/16 00:01:29;;;;;;;4.03;2.83;;;;;;;;;;5055780;28;20282;-74
2022/05/16 00:03:54;;;;;;;5.63;2.88;;;;;;;;;;5055567;28;20021;-74
2022/05/16 00:06:20;;;;;;;7.50;2.97;;;;;;;;;;5055992;28;20484;-74
2022/05/16 00:08:45;;;;;;;4.32;3.08;;;;;;;;;;5055459;28;20161;-74
2022/05/16 00:11:11;;;;;;;4.93;3.33;;;;;;;;;;5055356;28;20435;-73
2022/05/16 00:13:36;;;;;;;3.78;3.05;;;;;;;;;;5046899;28;20485;-73
2022/05/16 00:16:01;;;;;;;4.53;3.47;;;;;;;;;;5055455;28;20154;-73
2022/05/16 00:18:27;;;;;;;5.95;3.50;;;;;;;;;;5055377;28;20047;-72
2022/05/16 00:20:53;;;;;;;4.93;3.55;;;;;;;;;;5055371;28;20028;-72
2022/05/16 00:23:18;;;;;;;7.32;3.42;;;;;;;;;;5055377;28;20021;-73
2022/05/16 00:25:44;;;;;;;5.28;3.55;;;;;;;;;;5055144;28;20124;-73
2022/05/16 00:28:09;;;;;;;8.10;3.95;;;;;;;;;;5055287;28;20037;-74
2022/05/16 00:30:34;;;;;;;6.32;3.60;;;;;;;;;;5054932;28;20085;-74
2022/05/16 00:33:00;;;;;;;4.93;3.08;;;;;;;;;;5054612;28;20017;-75
2022/05/16 00:35:26;;;;;;;7.03;3.58;;;;;;;;;;5055271;28;20029;-75
2022/05/16 00:37:51;;;;;;;6.28;4.18;;;;;;;;;;5055239;28;20024;-75
2022/05/16 00:40:17;;;;;;;5.45;2.83;;;;;;;;;;5055312;28;20369;-75
2022/05/16 00:42:43;;;;;;;4.00;3.22;;;;;;;;;;5054963;28;20380;-75
2022/05/16 00:45:10;;;;;;;3.78;2.72;;;;;;;;;;5055112;28;20025;-74
2022/05/16 00:47:36;;;;;;;3.55;2.70;;;;;;;;;;5054871;28;20542;-73
2022/05/16 00:50:03;;;;;;;4.65;2.90;;;;;;;;;;5054636;28;20025;-74
2022/05/16 00:52:40;;;;;;;4.03;2.97;;;;;;;;;;5054707;28;20021;-74
2022/05/16 00:55:10;;;;;;;6.85;3.05;;;;;;;;;;5054589;28;20039;-74
2022/05/16 00:57:38;;;;;;;4.15;2.70;;;;;;;;;;5054778;28;20115;-74
2022/05/16 01:00:06;;;;;;;7.60;3.08;;;;;;;;;;5054658;28;20041;-74
2022/05/16 01:05:19;;;;;;;4.35;3.10;;;;;;;;;;5054534;28;20029;-75
2022/05/16 01:07:45;;;;;;;3.28;2.92;;;;;;;;;;5054761;28;20017;-75
2022/05/16 01:10:12;;;;;;;3.22;2.78;;;;;;;;;;5054494;28;20120;-75
2022/05/16 01:12:39;;;;;;;3.97;2.53;;;;;;;;;;5054294;28;20045;-75
2022/05/16 01:15:11;;;;;;;2.88;2.08;;;;;;;;;;5054367;28;20376;-75
2022/05/16 01:17:37;;;;;;;2.45;2.03;;;;;;;;;;5054286;28;20029;-75
2022/05/16 01:20:04;;;;;;;3.15;2.10;;;;;;;;;;5053832;28;20029;-75
2022/05/16 01:22:56;;;;;;;3.85;2.35;;;;;;;;;;5054137;28;20032;-74
2022/05/16 01:25:23;;;;;;;3.17;2.05;;;;;;;;;;5051139;28;20036;-74
2022/05/16 01:27:51;;;;;;;4.20;2.10;;;;;;;;;;5053992;28;20016;-74
2022/05/16 01:30:20;;;;;;;2.13;1.80;;;;;;;;;;5054182;28;20037;-74
2022/05/16 01:32:45;;;;;;;3.10;2.42;;;;;;;;;;5053874;28;20027;-72
2022/05/16 01:35:11;;;;;;;2.92;2.35;;;;;;;;;;5054179;28;20025;-72
2022/05/16 01:40:20;;;;;;;3.78;3.03;;;;;;;;;;5053852;28;20477;-73
2022/05/16 01:42:45;;;;;;;3.20;2.90;;;;;;;;;;5054195;28;20099;-73
2022/05/16 01:45:11;;;;;;;3.92;2.50;;;;;;;;;;5054006;28;20025;-75
2022/05/16 01:47:36;;;;;;;3.65;2.53;;;;;;;;;;5053967;28;20413;-74
2022/05/16 01:50:01;;;;;;;3.13;2.80;;;;;;;;;;5053655;28;20127;-74
2022/05/16 01:52:27;;;;;;;3.03;2.72;;;;;;;;;;5053959;28;20092;-74
2022/05/16 01:54:52;;;;;;;3.75;2.30;;;;;;;;;;5053861;28;20481;-74
2022/05/16 01:57:18;;;;;;;2.65;1.83;;;;;;;;;;5054175;28;20024;-73
2022/05/16 01:59:43;;;;;;;2.95;2.17;;;;;;;;;;5053790;28;20029;-73
2022/05/16 02:02:08;;;;;;;2.90;2.27;;;;;;;;;;5054041;28;20105;-73
2022/05/16 02:04:34;;;;;;;3.22;2.00;;;;;;;;;;5053898;28;20311;-73
2022/05/16 02:07:00;;;;;;;2.72;1.92;;;;;;;;;;5053958;28;20024;-73
2022/05/16 02:09:26;;;;;;;2.22;2.00;;;;;;;;;;5053577;28;20037;-73
2022/05/16 02:11:51;;;;;;;3.13;1.92;;;;;;;;;;5053328;28;20052;-74
2022/05/16 02:14:16;;;;;;;1.77;1.35;;;;;;;;;;5053466;28;20033;-74
2022/05/16 02:16:41;;;;;;;2.35;1.77;;;;;;;;;;5053562;28;20032;-74
2022/05/16 02:19:07;;;;;;;2.53;1.83;;;;;;;;;;5053640;28;20039;-74
2022/05/16 02:27:00;;;;;;;1.70;1.60;;;;;;;;;;5053530;28;20033;-74
2022/05/16 02:29:26;;;;;;;1.70;1.50;;;;;;;;;;5053380;28;20027;-74
2022/05/16 02:31:51;;;;;;;2.28;1.77;;;;;;;;;;5053376;28;20469;-74
2022/05/16 02:34:17;;;;;;;2.35;1.73;;;;;;;;;;5053848;28;20025;-74
2022/05/16 02:36:42;;;;;;;1.75;1.65;;;;;;;;;;5053691;28;20119;-73
2022/05/16 02:39:08;;;;;;;1.92;1.63;;;;;;;;;;5053166;28;20017;-74
2022/05/16 02:41:34;;;;;;;3.25;1.95;;;;;;;;;;5053436;28;20439;-74
2022/05/16 02:44:01;;;;;;;1.95;1.80;;;;;;;;;;5052976;28;20020;-73
2022/05/16 02:46:26;;;;;;;2.17;1.98;;;;;;;;;;5053513;28;20041;-73
2022/05/16 02:48:51;;;;;;;3.25;2.30;;;;;;;;;;5053210;28;20023;-73
2022/05/16 02:51:17;;;;;;;2.30;2.10;;;;;;;;;;5053238;28;20388;-73
2022/05/16 02:53:42;;;;;;;1.63;1.53;;;;;;;;;;5053148;28;20017;-73
2022/05/16 02:56:08;;;;;;;2.28;2.08;;;;;;;;;;5053543;28;20354;-73
2022/05/16 02:58:33;;;;;;;2.00;1.70;;;;;;;;;;5056732;28;20100;-74
2022/05/16 03:00:58;;;;;;;2.35;1.90;;;;;;;;;;5057031;28;20064;-73
2022/05/16 03:03:24;;;;;;;1.90;1.70;;;;;;;;;;5056971;28;20028;-73
2022/05/16 03:05:49;;;;;;;3.63;1.98;;;;;;;;;;5056701;28;20275;-73
2022/05/16 03:08:14;;;;;;;2.10;1.93;;;;;;;;;;5056694;28;20025;-72
2022/05/16 03:10:40;;;;;;;1.92;1.70;;;;;;;;;;5056466;28;20615;-74
2022/05/16 03:13:06;;;;;;;3.55;1.90;;;;;;;;;;5056600;28;20036;-75
2022/05/16 03:15:32;;;;;;;2.80;2.10;;;;;;;;;;5056611;28;20051;-75
2022/05/16 03:17:58;;;;;;;2.97;1.73;;;;;;;;;;5056517;28;20029;-73
2022/05/16 03:20:25;;;;;;;2.63;1.83;;;;;;;;;;5056570;28;20040;-73
2022/05/16 03:22:50;;;;;;;2.03;1.70;;;;;;;;;;5056423;28;20040;-74
2022/05/16 03:25:15;;;;;;;1.85;1.60;;;;;;;;;;5056394;28;20461;-73
2022/05/16 03:27:41;;;;;;;1.48;1.38;;;;;;;;;;5056389;28;20025;-73
2022/05/16 03:30:08;;;;;;;2.67;2.03;;;;;;;;;;5056235;28;20033;-73
2022/05/16 03:32:33;;;;;;;3.67;2.00;;;;;;;;;;5056448;28;20115;-73
2022/05/16 03:34:58;;;;;;;4.70;2.50;;;;;;;;;;5056386;28;20037;-73
2022/05/16 03:37:23;;;;;;;3.65;2.05;;;;;;;;;;5056175;28;20027;-73
2022/05/16 03:42:33;;;;;;;4.78;2.03;;;;;;;;;;5056328;28;20040;-73
2022/05/16 03:44:58;;;;;;;2.85;1.85;;;;;;;;;;5055762;28;20096;-74
2022/05/16 03:47:24;;;;;;;1.92;1.45;;;;;;;;;;5056048;28;20028;-74
2022/05/16 03:49:50;;;;;;;2.95;1.95;;;;;;;;;;5038017;28;20028;-73
2022/05/16 03:52:15;;;;;;;3.13;1.90;;;;;;;;;;5055957;28;20025;-74
2022/05/16 03:54:41;;;;;;;3.42;1.90;;;;;;;;;;5056083;28;20119;-74
2022/05/16 03:57:06;;;;;;;3.10;1.77;;;;;;;;;;5055801;28;20037;-74
2022/05/16 03:59:33;;;;;;;3.92;1.70;;;;;;;;;;5055906;28;20028;-74
2022/05/16 04:01:58;;;;;;;2.75;1.60;;;;;;;;;;5055984;28;20032;-74
2022/05/16 04:04:24;;;;;;;2.05;1.63;;;;;;;;;;5055666;28;20021;-74
2022/05/16 04:06:49;;;;;;;1.80;1.33;;;;;;;;;;5055474;28;20036;-75
2022/05/16 04:09:15;;;;;;;2.70;1.60;;;;;;;;;;5054526;28;20096;-75
2022/05/16 04:11:40;;;;;;;1.55;1.42;;;;;;;;;;5055386;28;20045;-74
2022/05/16 04:14:06;;;;;;;1.67;1.40;;;;;;;;;;5055307;28;20539;-74
2022/05/16 04:16:31;;;;;;;2.42;1.50;;;;;;;;;;5055770;28;20421;-74
2022/05/16 04:18:56;;;;;;;1.40;1.27;;;;;;;;;;5054925;28;20112;-74
2022/05/16 04:21:22;;;;;;;2.20;1.42;;;;;;;;;;5054070;28;20033;-74
2022/05/16 04:23:47;;;;;;;1.70;1.35;;;;;;;;;;5053616;28;20020;-75
2022/05/16 04:26:13;;;;;;;1.70;1.60;;;;;;;;;;5053497;28;20125;-75
2022/05/16 04:28:38;;;;;;;1.40;1.30;;;;;;;;;;5053278;28;20029;-75
2022/05/16 04:31:03;;;;;;;1.88;1.52;;;;;;;;;;5053145;28;20033;-75
2022/05/16 04:33:31;;;;;;;1.40;1.30;;;;;;;;;;5053320;28;20112;-75
2022/05/16 04:35:56;;;;;;;1.67;1.20;;;;;;;;;;5053166;28;20112;-75
2022/05/16 04:38:22;;;;;;;2.17;1.30;;;;;;;;;;5053053;28;20097;-75
2022/05/16 04:43:31;;;;;;;2.45;1.40;;;;;;;;;;5053097;28;20072;-75
2022/05/16 04:45:57;;;;;;;1.75;1.00;;;;;;;;;;5052962;28;20047;-74
2022/05/16 04:48:22;;;;;;;2.70;1.30;;;;;;;;;;5053420;28;20456;-74
2022/05/16 04:50:47;;;;;;;1.10;1.00;;;;;;;;;;5054060;28;20025;-74
2022/05/16 04:53:13;;;;;;;2.47;1.20;;;;;;;;;;5054076;28;20324;-73
2022/05/16 04:55:38;;;;;;;1.40;1.30;;;;;;;;;;5054072;28;20021;-74
2022/05/16 04:58:04;;;;;;;2.85;1.58;;;;;;;;;;5053705;28;20385;-74
2022/05/16 05:00:29;;;;;;;2.05;1.17;;;;;;;;;;5053100;28;20029;-74
2022/05/16 05:02:56;;;;;;;1.67;1.58;;;;;;;;;;5053054;28;20079;-73
2022/05/16 05:05:22;;;;;;;1.50;1.40;;;;;;;;;;5035148;28;20063;-74
2022/05/16 05:07:49;;;;;;;3.40;1.63;;;;;;;;;;5052979;28;20068;-74
2022/05/16 05:15:44;;;;;;;3.88;1.55;;;;;;;;;;5052811;28;20082;-71
2022/05/16 05:18:09;;;;;;;1.50;1.38;;;;;;;;;;5052845;28;20010;-71
2022/05/16 05:20:35;;;;;;;1.60;1.15;;;;;;;;;;5052533;28;20040;-72
2022/05/16 05:23:01;;;;;;;1.58;1.30;;;;;;;;;;5052732;28;20082;-71
2022/05/16 05:25:27;;;;;;;1.65;1.55;;;;;;;;;;5052723;28;20057;-71
2022/05/16 05:27:53;;;;;;;1.63;1.52;;;;;;;;;;5052761;28;20063;-71
2022/05/16 05:30:20;;;;;;;1.30;1.20;;;;;;;;;;5052588;28;20128;-72
2022/05/16 05:32:47;;;;;;;1.45;1.35;;;;;;;;;;5052781;28;20044;-72
2022/05/16 05:35:13;;;;;;;2.30;1.73;;;;;;;;;;5052906;28;20030;-71
2022/05/16 05:37:38;;;;;;;3.78;2.10;;;;;;;;;;5052497;28;20028;-72
2022/05/16 05:40:06;;;;;;;2.05;1.88;;;;;;;;;;5052474;28;20060;-72
2022/05/16 05:42:32;;;;;;;2.60;2.40;;;;;;;;;;5052814;28;20075;-72
2022/05/16 05:44:58;;;;;;;4.18;1.88;;;;;;;;;;5034576;28;20444;-72
2022/05/16 05:47:23;;;;;;;1.77;1.67;;;;;;;;;;5052328;28;20067;-72
2022/05/16 05:49:49;;;;;;;1.73;1.63;;;;;;;;;;5052318;28;20044;-72
2022/05/16 05:52:17;;;;;;;1.63;1.52;;;;;;;;;;5034518;28;20021;-71
2022/05/16 05:54:43;;;;;;;2.25;1.63;;;;;;;;;;5052436;28;20059;-72
2022/05/16 05:57:08;;;;;;;1.75;1.42;;;;;;;;;;5053344;28;20025;-72
2022/05/16 05:59:34;;;;;;;1.90;1.70;;;;;;;;;;5053332;28;20021;-72
2022/05/16 06:01:59;;;;;;;2.40;1.48;;;;;;;;;;5053282;28;20535;-74
2022/05/16 06:04:24;;;;;;;3.83;1.65;;;;;;;;;;5035664;28;20040;-74
2022/05/16 06:06:50;;;;;;;3.60;1.55;;;;;;;;;;5053463;28;20036;-73
2022/05/16 06:09:16;;;;;;;1.90;1.38;;;;;;;;;;5053792;28;20033;-74
2022/05/16 06:11:41;;;;;;;2.05;1.45;;;;;;;;;;5035558;28;20048;-73
2022/05/16 06:14:07;;;;;;;4.55;1.52;;;;;;;;;;5053512;28;20365;-73
2022/05/16 06:16:32;;;;;;;1.63;1.52;;;;;;;;;;5053981;28;20032;-74
2022/05/16 06:18:57;;;;;;;2.35;1.77;;;;;;;;;;5053692;28;20025;-73
2022/05/16 06:21:23;;;;;;;3.70;2.28;;;;;;;;;;5053712;28;20488;-73
2022/05/16 06:23:48;;;;;;;2.90;2.00;;;;;;;;;;5053071;28;20032;-73
2022/05/16 06:26:14;;;;;;;3.08;1.90;;;;;;;;;;5052962;28;20036;-74
2022/05/16 06:28:39;;;;;;;1.92;1.20;;;;;;;;;;5053161;28;20425;-77
2022/05/16 06:31:05;;;;;;;1.60;1.27;;;;;;;;;;5052999;28;20455;-75
2022/05/16 06:33:30;;;;;;;2.13;1.27;;;;;;;;;;5056787;28;20035;-75
2022/05/16 06:35:56;;;;;;;1.83;1.07;;;;;;;;;;5056892;28;20095;-75
2022/05/16 06:38:25;;;;;;;1.65;1.25;;;;;;;;;;5057178;28;20259;-75
2022/05/16 06:40:50;;;;;;;3.33;1.30;;;;;;;;;;5056871;28;20035;-74
2022/05/16 06:43:17;;;;;;;3.38;1.00;;;;;;;;;;5039063;28;20047;-75
2022/05/16 06:45:42;;;;;;;4.45;2.33;;;;;;;;;;5056785;28;20017;-75
2022/05/16 06:48:08;;;;;;;3.13;1.48;;;;;;;;;;5056750;28;20033;-75
2022/05/16 06:50:34;;;;;;;2.08;1.70;;;;;;;;;;5056697;28;20040;-75
2022/05/16 06:53:00;;;;;;;4.72;1.65;;;;;;;;;;5056617;28;20056;-75
2022/05/16 06:55:25;;;;;;;2.28;1.30;;;;;;;;;;5056552;28;20434;-75
2022/05/16 06:57:51;;;;;;;2.58;1.25;;;;;;;;;;5056502;28;20033;-75
2022/05/16 07:00:16;;;;;;;1.30;1.07;;;;;;;;;;5056494;28;20025;-75
2022/05/16 07:02:42;;;;;;;3.55;1.48;;;;;;;;;;5056423;28;20341;-75
2022/05/16 07:05:07;;;;;;;2.65;1.73;;;;;;;;;;5056408;28;20032;-75
2022/05/16 07:07:33;;;;;;;3.47;1.70;;;;;;;;;;5056333;28;20032;-75
2022/05/16 07:09:59;;;;;;;4.90;2.17;;;;;;;;;;5056290;28;20017;-75
2022/05/16 07:12:25;;;;;;;6.30;2.28;;;;;;;;;;5056167;28;20060;-75
2022/05/16 07:14:50;;;;;;;2.03;1.30;;;;;;;;;;5056186;28;20393;-75
2022/05/16 07:17:15;;;;;;;1.92;1.10;;;;;;;;;;5056146;28;20029;-75
2022/05/16 07:19:41;;;;;;;3.72;1.45;;;;;;;;;;5056076;28;20070;-75
2022/05/16 07:22:10;;;;;;;4.00;2.05;;;;;;;;;;5056068;28;20082;-75
2022/05/16 07:24:36;;;;;;;7.53;2.40;;;;;;;;;;5056250;28;20036;-75
2022/05/16 07:29:46;;;;;;;4.88;1.75;;;;;;;;;;5056110;28;20032;-75
2022/05/16 07:32:11;;;;;;;3.38;1.60;;;;;;;;;;5055884;28;20095;-75
2022/05/16 07:34:37;;;;;;;2.97;1.65;;;;;;;;;;5055804;28;20478;-75
2022/05/16 07:37:02;;;;;;;5.45;2.08;;;;;;;;;;5037872;28;20032;-75
2022/05/16 07:39:28;;;;;;;2.63;1.58;;;;;;;;;;5037983;28;20067;-75
2022/05/16 07:41:54;;;;;;;3.30;1.40;;;;;;;;;;5055711;28;20086;-75
2022/05/16 07:44:20;;;;;;;3.20;1.13;;;;;;;;;;5055508;28;20086;-75
2022/05/16 07:46:46;;;;;;;2.65;0.85;;;;;;;;;;5037801;28;20029;-75
2022/05/16 07:49:13;;;;;;;3.55;0.95;;;;;;;;;;5037762;28;20043;-75
2022/05/16 07:51:39;;;;;;;2.03;1.40;;;;;;;;;;5055912;28;20028;-75
2022/05/16 07:54:05;;;;;;;1.52;1.02;;;;;;;;;;5055554;28;20549;-75
2022/05/16 07:56:31;;;;;;;1.45;0.95;;;;;;;;;;5036802;28;20064;-76
2022/05/16 07:58:57;;;;;;;2.13;0.70;;;;;;;;;;5055493;28;20033;-75
2022/05/16 08:01:22;;;;;;;3.47;1.20;;;;;;;;;;5037617;28;20032;-74
2022/05/16 08:03:47;;;;;;;2.40;1.05;;;;;;;;;;5055341;28;20041;-75
2022/05/16 08:06:13;;;;;;;1.97;1.30;;;;;;;;;;5055295;28;20025;-73
2022/05/16 08:11:22;;;;;;;1.73;1.20;;;;;;;;;;5054934;28;20043;-74
2022/05/16 08:13:48;;;;;;;1.73;0.80;;;;;;;;;;5055131;28;20036;-75
2022/05/16 08:16:13;;;;;;;2.20;0.88;;;;;;;;;;5055152;28;20072;-75
2022/05/16 08:18:39;;;;;;;1.85;0.85;;;;;;;;;;5055013;28;20075;-75
2022/05/16 08:21:05;;;;;;;1.83;0.73;;;;;;;;;;5055509;28;20423;-74
2022/05/16 08:23:31;;;;;;;1.63;0.98;;;;;;;;;;5054903;28;20036;-74
2022/05/16 08:25:58;;;;;;;1.92;0.90;;;;;;;;;;5054825;28;20041;-74
2022/05/16 08:28:24;;;;;;;1.45;1.10;;;;;;;;;;5054791;28;20028;-74
2022/05/16 08:30:50;;;;;;;3.25;1.10;;;;;;;;;;5054701;28;20386;-73
2022/05/16 08:33:16;;;;;;;5.03;0.90;;;;;;;;;;5054181;28;20033;-73
2022/05/16 08:35:41;;;;;;;2.78;1.10;;;;;;;;;;5054863;28;20036;-73
2022/05/16 08:40:54;;;;;;;1.90;1.05;;;;;;;;;;5053658;28;20112;-73
2022/05/16 08:43:26;;;;;;;1.67;0.98;;;;;;;;;;5054537;28;20028;-73
2022/05/16 08:46:02;;;;;;;2.03;0.90;;;;;;;;;;5054485;28;20083;-73
2022/05/16 08:48:33;;;;;;;1.85;1.05;;;;;;;;;;5054401;28;20107;-73
2022/05/16 08:51:04;;;;;;;0.90;0.70;;;;;;;;;;5054344;28;20060;-73
2022/05/16 08:53:55;;;;;;;1.30;0.85;;;;;;;;;;5054360;28;20115;-73
2022/05/16 08:56:26;;;;;;;3.08;0.90;;;;;;;;;;5049944;28;20115;-73
2022/05/16 08:59:01;;;;;;;2.17;0.57;;;;;;;;;;5054284;28;20413;-73
2022/05/16 09:01:31;;;;;;;1.73;0.82;;;;;;;;;;5054300;28;20549;-73
2022/05/16 09:04:00;;;;;;;1.47;0.80;;;;;;;;;;5054292;28;20431;-73
2022/05/16 09:06:34;;;;;;;1.90;0.60;;;;;;;;;;5054103;28;20465;-73
2022/05/16 09:09:10;;;;;;;1.17;0.98;;;;;;;;;;5053929;28;20061;-73
2022/05/16 09:11:50;;;;;;;1.10;0.77;;;;;;;;;;5053880;28;20408;-73
2022/05/16 09:14:15;;;;;;;;;;;;;;;;;;5054502;28;20036;-73
2022/05/16 09:16:57;;;;;;;1.20;0.90;;;;;;;;;;5053974;28;19905;-73
2022/05/16 09:19:32;;;;;;;2.70;0.75;;;;;;;;;;5054317;28;20025;-74
2022/05/16 09:22:13;;;;;;;2.47;1.00;;;;;;;;;;5036593;28;20535;-73
2022/05/16 09:24:50;;;;;;;1.30;0.90;;;;;;;;;;5053971;28;20021;-73
2022/05/16 09:30:06;;;;;;;;;;;;;;;;;;5053753;28;20040;-74
2022/05/16 09:32:34;;;;;;;1.10;1.00;;;;;;;;;;5053796;28;19909;-71
2022/05/16 09:35:00;;;;;;;2.40;0.80;;;;;;;;;;5053203;28;20463;-72
2022/05/16 09:37:25;;;;;;;0.70;0.57;;;;;;;;;;5053647;28;20025;-72
2022/05/16 09:39:52;;;;;;;1.95;0.68;;;;;;;;;;5053941;28;20028;-72
2022/05/16 09:42:20;;;;;;;0.90;0.77;;;;;;;;;;5053682;28;20025;-72
2022/05/16 09:44:48;;;;;;;0.80;0.80;;;;;;;;;;5052954;28;20370;-72
2022/05/16 09:47:28;;;;;;;1.00;0.98;;;;;;;;;;5053625;28;20440;-72
2022/05/16 09:50:05;;;;;;;2.78;0.95;;;;;;;;;;5053432;28;20031;-72
2022/05/16 09:52:37;;;;;;;1.38;0.77;;;;;;;;;;5052947;28;20029;-72
2022/05/16 09:55:04;;;;;;;2.35;0.70;;;;;;;;;;5053736;28;20029;-72
2022/05/16 09:57:32;;;;;;;0.68;0.68;;;;;;;;;;5053866;28;20108;-72
2022/05/16 10:00:15;;;;;;;2.22;0.80;;;;;;;;;;5053789;28;20477;-72
2022/05/16 10:02:41;;;;;;;1.30;0.65;;;;;;;;;;5053883;28;20091;-72
2022/05/16 10:05:07;;;;;;;0.60;0.60;;;;;;;;;;5035656;28;20020;-72
2022/05/16 10:07:38;;;;;;;1.27;0.88;;;;;;;;;;5056041;28;20086;-72
2022/05/16 10:10:04;;;;;;;1.40;0.85;;;;;;;;;;5057349;28;20107;-72
2022/05/16 10:12:31;;;;;;;2.17;0.90;;;;;;;;;;5057544;28;20091;-72
2022/05/16 10:14:58;;;;;;;1.45;0.73;;;;;;;;;;5057472;28;20070;-71
2022/05/16 10:17:32;;;;;;;1.02;0.70;;;;;;;;;;5057335;28;20016;-72
2022/05/16 10:20:01;;;;;;;2.30;0.88;;;;;;;;;;5057300;28;20132;-72
2022/05/16 10:22:27;;;;;;;0.85;0.70;;;;;;;;;;5056252;28;20064;-72
2022/05/16 10:24:55;;;;;;;2.92;0.90;;;;;;;;;;5055976;28;20469;-72
2022/05/16 10:27:25;;;;;;;0.80;0.80;;;;;;;;;;5038213;28;20072;-72
2022/05/16 10:29:52;;;;;;;1.48;0.90;;;;;;;;;;5055978;28;20473;-72
2022/05/16 10:35:12;;;;;;;1.98;0.88;;;;;;;;;;5055798;28;20464;-72
2022/05/16 10:37:41;;;;;;;1.58;0.80;;;;;;;;;;5055813;28;20029;-72
2022/05/16 10:40:12;;;;;;;3.50;1.10;;;;;;;;;;5055809;28;20032;-72
2022/05/16 10:42:46;;;;;;;1.25;1.00;;;;;;;;;;5053083;28;21009;-73
2022/05/16 10:45:17;;;;;;;2.35;0.90;;;;;;;;;;5045958;28;20026;-73
2022/05/16 10:47:57;;;;;;;2.40;0.88;;;;;;;;;;5042401;28;20105;-70
2022/05/16 10:50:23;;;;;;;;;;;;;;;;;;5043108;28;20032;-72
2022/05/16 10:53:03;;;;;;;2.78;1.00;;;;;;;;;;5042917;28;19909;-70
2022/05/16 10:55:29;;;;;;;1.08;0.88;;;;;;;;;;5042908;28;20044;-69
2022/05/16 10:58:00;;;;;;;1.05;0.90;;;;;;;;;;5043828;28;20010;-71
2022/05/16 11:00:34;;;;;;;1.00;0.80;;;;;;;;;;5042500;28;20057;-73
2022/05/16 11:03:11;;;;;;;1.60;0.80;;;;;;;;;;5044240;28;20140;-74
2022/05/16 11:05:44;;;;;;;3.55;0.77;;;;;;;;;;5042774;28;20036;-71
2022/05/16 11:08:35;;;;;;;0.75;0.70;;;;;;;;;;5039690;28;20033;-72
2022/05/16 11:11:03;;;;;;;0.88;0.73;;;;;;;;;;5040712;28;20473;-69
2022/05/16 11:13:35;;;;;;;1.75;0.70;;;;;;;;;;5043645;28;20021;-71
2022/05/16 11:16:15;;;;;;;1.98;0.77;;;;;;;;;;5045413;28;20118;-71
2022/05/16 11:18:48;;;;;;;1.90;0.82;;;;;;;;;;5044858;28;20025;-70
2022/05/16 11:21:24;;;;;;;1.48;0.90;;;;;;;;;;5044835;28;20029;-73
2022/05/16 11:24:19;;;;;;;1.38;0.70;;;;;;;;;;5040904;28;20025;-71
2022/05/16 11:27:03;;;;;;;0.70;0.70;;;;;;;;;;5037641;28;20500;-77
2022/05/16 11:29:32;;;;;;;0.95;0.80;;;;;;;;;;5039280;28;20381;-74
2022/05/16 11:31:57;;;;;;;1.40;0.77;;;;;;;;;;5043481;28;20016;-76
2022/05/16 11:34:27;;;;;;;0.88;0.60;;;;;;;;;;5027689;28;20381;-70
2022/05/16 11:37:00;;;;;;;1.27;0.77;;;;;;;;;;5044542;28;20465;-72
2022/05/16 11:39:26;;;;;;;1.83;0.90;;;;;;;;;;5040069;28;20344;-78
2022/05/16 11:41:59;;;;;;;2.47;1.00;;;;;;;;;;5027686;28;20024;-75
2022/05/16 11:44:28;;;;;;;1.25;0.77;;;;;;;;;;5039851;28;20032;-74
2022/05/16 11:47:12;;;;;;;3.35;0.90;;;;;;;;;;5044430;28;20017;-67
2022/05/16 11:49:37;;;;;;;1.55;0.80;;;;;;;;;;5041359;28;20030;-76
2022/05/16 11:52:21;;;;;;;1.95;0.77;;;;;;;;;;5043006;28;20346;-75
2022/05/16 12:00:31;;;;;;;1.63;0.70;;;;;;;;;;5040065;28;20875;-71
2022/05/16 12:00:41;;;;;;;2.03;0.70;;;;;;;;;;5038075;28;20496;-74
2022/05/16 12:03:07;;;;;;;;;;;;;;;;;;5040249;28;20040;-73
2022/05/16 12:05:39;;;;;;;3.17;1.00;;;;;;;;;;5042301;28;19908;-74
2022/05/16 12:08:22;;;;;;;4.50;1.02;;;;;;;;;;5044456;28;20029;-67
2022/05/16 12:10:55;;;;;;;1.48;0.93;;;;;;;;;;5039387;28;20420;-72
2022/05/16 12:13:28;;;;;;;1.05;0.70;;;;;;;;;;5044087;28;20057;-72
2022/05/16 12:16:08;;;;;;;2.95;0.93;;;;;;;;;;5035337;28;20025;-72
2022/05/16 12:18:36;;;;;;;1.70;0.82;;;;;;;;;;5055770;28;20056;-72
2022/05/16 12:21:04;;;;;;;1.77;0.88;;;;;;;;;;5055438;28;20017;-72
2022/05/16 12:23:48;;;;;;;1.42;0.77;;;;;;;;;;5055316;28;20029;-72
2022/05/16 12:26:25;;;;;;;0.88;0.80;;;;;;;;;;5054916;28;20550;-72
2022/05/16 12:29:09;;;;;;;1.65;0.77;;;;;;;;;;5054820;28;20025;-72
2022/05/16 12:31:49;;;;;;;16.60;1.42;;;;;;;;;;5054693;28;20064;-72
2022/05/16 12:34:38;;;;;;;1.45;0.75;;;;;;;;;;5053808;28;20140;-72
2022/05/16 12:37:10;;;;;;;1.08;0.60;;;;;;;;;;5052418;28;20104;-72
2022/05/16 12:39:51;;;;;;;1.77;0.90;;;;;;;;;;5052333;28;20140;-71
2022/05/16 12:42:16;;;;;;;;;;;;;;;;;;5053003;28;20040;-72
2022/05/16 12:44:52;;;;;;;1.42;1.10;;;;;;;;;;5052436;28;19904;-72
2022/05/16 12:47:25;;;;;;;1.45;1.00;;;;;;;;;;5052284;28;20025;-72
2022/05/16 12:49:57;;;;;;;2.13;1.00;;;;;;;;;;5053513;28;20086;-72
2022/05/16 12:52:43;;;;;;;1.13;0.90;;;;;;;;;;5054692;28;20469;-72
2022/05/16 12:55:26;;;;;;;1.58;1.02;;;;;;;;;;5003487;28;20041;-72
2022/05/16 12:58:00;;;;;;;2.28;0.77;;;;;;;;;;5054302;28;20112;-72
2022/05/16 13:00:52;;;;;;;3.55;0.80;;;;;;;;;;5054252;28;20036;-72
2022/05/16 13:03:38;;;;;;;2.05;0.75;;;;;;;;;;5049644;28;20048;-72
2022/05/16 13:06:11;;;;;;;4.40;1.00;;;;;;;;;;5054085;28;20028;-72
2022/05/16 13:08:40;;;;;;;1.50;0.85;;;;;;;;;;5054163;28;20036;-71
2022/05/16 13:11:05;;;;;;;2.58;0.73;;;;;;;;;;5053897;28;20035;-72
2022/05/16 13:13:37;;;;;;;0.95;0.85;;;;;;;;;;5054003;28;20112;-72
2022/05/16 13:16:06;;;;;;;4.35;1.27;;;;;;;;;;5035979;28;20025;-72
2022/05/16 13:18:33;;;;;;;10.85;2.60;;;;;;;;;;5054054;28;20374;-72
2022/05/16 13:21:05;;;;;;;4.38;1.40;;;;;;;;;;5053862;28;20029;-72
2022/05/16 13:23:30;;;;;;;18.48;2.25;;;;;;;;;;5053871;28;20029;-71
2022/05/16 13:31:34;;;;;;;23.50;4.03;;;;;;;;;;5053826;28;20095;-72
2022/05/16 13:34:00;;;;;;;2.15;1.00;;;;;;;;;;5053611;28;20017;-72
2022/05/16 13:36:26;;;;;;;3.90;1.00;;;;;;;;;;5053532;28;20037;-72
2022/05/16 13:38:52;;;;;;;1.25;0.75;;;;;;;;;;5053707;28;20021;-72
2022/05/16 13:41:23;;;;;;;2.15;0.93;;;;;;;;;;5053375;28;20033;-72
2022/05/16 13:43:48;;;;;;;0.75;0.73;;;;;;;;;;5053666;28;20041;-73
2022/05/16 13:46:13;;;;;;;1.38;1.10;;;;;;;;;;5053540;28;20074;-72
2022/05/16 13:48:40;;;;;;;3.22;1.10;;;;;;;;;;5053595;28;20029;-72
2022/05/16 13:51:06;;;;;;;2.72;0.77;;;;;;;;;;5053396;28;20017;-72
2022/05/16 13:53:32;;;;;;;1.38;0.90;;;;;;;;;;5053417;28;20091;-72
2022/05/16 13:55:58;;;;;;;2.22;0.90;;;;;;;;;;5053464;28;20060;-72
2022/05/16 13:58:26;;;;;;;2.88;0.90;;;;;;;;;;5053381;28;20068;-72
2022/05/16 14:01:10;;;;;;;1.08;0.90;;;;;;;;;;5053290;28;20112;-72
2022/05/16 14:03:35;;;;;;;29.27;3.90;;;;;;;;;;5053447;28;20091;-72
2022/05/16 14:06:02;;;;;;;17.52;2.63;;;;;;;;;;5053357;28;20017;-73
2022/05/16 14:08:34;;;;;;;4.65;1.38;;;;;;;;;;5053316;28;20025;-72
2022/05/16 14:11:01;;;;;;;7.38;1.73;;;;;;;;;;5053210;28;20033;-72
2022/05/16 14:13:29;;;;;;;3.28;1.20;;;;;;;;;;5033327;28;20037;-72
2022/05/16 14:16:06;;;;;;;32.20;3.75;;;;;;;;;;5033311;28;20478;-72
2022/05/16 14:18:36;;;;;;;10.85;1.80;;;;;;;;;;5015579;28;20401;-72
2022/05/16 14:21:18;;;;;;;0.93;0.88;;;;;;;;;;5033410;28;20385;-72
2022/05/16 14:23:57;;;;;;;16.38;2.40;;;;;;;;;;5015943;28;20370;-73
2022/05/16 14:26:24;;;;;;;3.33;0.90;;;;;;;;;;5033815;28;20048;-73
2022/05/16 14:29:09;;;;;;;2.75;0.90;;;;;;;;;;5033377;28;20017;-73
2022/05/16 14:31:45;;;;;;;0.93;0.93;;;;;;;;;;5019871;28;20432;-72
2022/05/16 14:34:16;;;;;;;0.95;0.82;;;;;;;;;;5033566;28;20021;-73
2022/05/16 14:36:42;;;;;;;2.85;1.33;;;;;;;;;;5033646;28;20116;-73
2022/05/16 14:39:19;;;;;;;3.05;1.10;;;;;;;;;;5033262;28;20103;-72
2022/05/16 14:41:49;;;;;;;2.85;1.10;;;;;;;;;;5033113;28;20037;-72
2022/05/16 14:44:19;;;;;;;2.05;1.08;;;;;;;;;;5015405;28;20036;-73
2022/05/16 14:46:55;;;;;;;2.28;1.40;;;;;;;;;;5033275;28;20386;-73
2022/05/16 14:49:21;;;;;;;3.90;1.10;;;;;;;;;;5033040;28;20060;-73
2022/05/16 14:51:48;;;;;;;2.10;1.30;;;;;;;;;;5031296;28;20601;-73
2022/05/16 14:54:21;;;;;;;2.92;1.08;;;;;;;;;;5034634;28;20025;-73
2022/05/16 14:56:47;;;;;;;2.25;1.00;;;;;;;;;;5034501;28;20537;-73
2022/05/16 14:59:12;;;;;;;22.20;3.60;;;;;;;;;;5035513;28;20022;-73
2022/05/16 15:04:21;;;;;;;11.50;1.83;;;;;;;;;;5033051;28;20453;-73
2022/05/16 15:06:47;;;;;;;2.90;1.00;;;;;;;;;;5035519;28;20018;-73
2022/05/16 15:09:14;;;;;;;2.90;1.17;;;;;;;;;;5035839;28;20033;-73
2022/05/16 15:11:47;;;;;;;13.65;1.52;;;;;;;;;;5041531;28;20053;-73
2022/05/16 15:14:13;;;;;;;2.03;1.15;;;;;;;;;;5056270;28;20120;-73
2022/05/16 15:16:39;;;;;;;8.73;1.88;;;;;;;;;;5056052;28;20068;-73
2022/05/16 15:19:07;;;;;;;3.45;1.40;;;;;;;;;;5056702;28;20033;-73
2022/05/16 15:21:33;;;;;;;2.30;1.20;;;;;;;;;;5056579;28;20017;-73
2022/05/16 15:23:58;;;;;;;4.03;1.58;;;;;;;;;;5056617;28;20048;-73
2022/05/16 15:26:24;;;;;;;3.10;1.25;;;;;;;;;;5056586;28;20025;-73
2022/05/16 15:28:49;;;;;;;3.78;1.42;;;;;;;;;;5056341;28;20029;-74
2022/05/16 15:31:14;;;;;;;5.22;1.50;;;;;;;;;;5056363;28;20108;-73
2022/05/16 15:33:40;;;;;;;1.88;1.27;;;;;;;;;;5056191;28;20040;-73
2022/05/16 15:36:06;;;;;;;2.75;1.13;;;;;;;;;;5056463;28;20102;-73
2022/05/16 15:38:32;;;;;;;1.77;1.30;;;;;;;;;;5056361;28;20160;-73